Time;durP1;ratioP1;P1;durP2;ratioP2;P2;SDS_P1;SDS_P2;PMS_P1;PMS_P2;Temp;Humidity;BMP_temperature;BMP_pressure;BME280_temperature;BME280_humidity;BME280_pressure;Samples;Min_cycle;Max_cycle;Signal;HPM_P1;HPM_P2
2022/02/23 15:10:27;;;;;;;2.60;0.50;;;;;;;21.39;41.49;100120.19;4872799;27;20401;-61
2022/02/23 15:44:28;;;;;;;1.48;0.55;;;;;;;16.37;34.59;100053.84;8290865;27;20879;-75
2022/02/23 15:48:30;;;;;;;1.23;0.38;;;;;;;14.77;35.26;100044.72;8286750;28;20071;-74
2022/02/23 15:52:32;;;;;;;1.10;0.30;;;;;;;14.07;37.84;100039.28;8341438;28;20673;-74
2022/02/23 15:56:33;;;;;;;1.63;0.23;;;;;;;13.44;39.62;100034.47;8340368;28;20063;-75
2022/02/23 16:00:36;;;;;;;1.03;0.30;;;;;;;13.02;40.57;100032.91;8338361;28;20060;-75
2022/02/23 16:04:38;;;;;;;1.05;0.30;;;;;;;12.47;41.16;100032.22;8339092;28;20804;-75
2022/02/23 16:08:40;;;;;;;1.52;0.30;;;;;;;12.12;42.10;100014.91;8339553;28;20076;-74
2022/02/23 16:12:41;;;;;;;1.42;0.30;;;;;;;11.81;43.41;100014.03;8340611;28;20049;-74
2022/02/23 16:16:43;;;;;;;1.08;0.40;;;;;;;11.60;44.21;100008.78;8336262;28;20067;-74
2022/02/23 16:20:44;;;;;;;1.65;0.38;;;;;;;11.36;46.52;99992.28;8338439;28;20168;-74
2022/02/23 16:24:46;;;;;;;5.23;0.70;;;;;;;11.15;47.54;99987.91;8340329;28;20097;-74
2022/02/23 16:28:48;;;;;;;2.38;0.60;;;;;;;11.01;48.44;99988.72;8338326;28;20535;-74
2022/02/23 16:32:50;;;;;;;1.63;0.40;;;;;;;10.85;50.80;99980.84;8337509;28;20613;-74
2022/02/23 16:36:51;;;;;;;1.67;0.50;;;;;;;10.67;50.67;99978.19;8338364;28;20083;-74
2022/02/23 16:40:53;;;;;;;0.47;0.23;;;;;;;10.41;55.14;99975.47;8337486;28;20067;-74
2022/02/23 16:44:55;;;;;;;2.15;0.30;;;;;;;10.24;55.31;99969.31;8354379;28;20580;-74
2022/02/23 16:48:58;;;;;;;1.17;0.30;;;;;;;10.02;58.58;99969.97;8337328;28;20053;-74
2022/02/23 16:52:59;;;;;;;2.03;0.20;;;;;;;9.69;60.22;99961.06;8349033;28;20136;-74
2022/02/23 16:57:01;;;;;;;0.87;0.30;;;;;;;9.49;60.87;99967.78;8314392;28;20049;-73
2022/02/23 17:01:03;;;;;;;4.68;0.40;;;;;;;9.29;62.20;99972.78;8311869;28;20061;-74
2022/02/23 17:05:08;;;;;;;0.45;0.43;;;;;;;9.17;62.48;99970.09;8314669;28;20080;-74
2022/02/23 17:09:10;;;;;;;1.15;0.30;;;;;;;9.05;63.61;99957.88;8315299;28;20060;-73
2022/02/23 17:13:12;;;;;;;0.65;0.28;;;;;;;8.98;64.37;99956.94;8315042;28;20128;-73
2022/02/23 17:17:14;;;;;;;;;;;;;;;8.88;65.67;99952.50;8311761;28;20069;-73
2022/02/23 17:21:16;;;;;;;0.40;0.20;;;;;;;8.81;67.24;99944.66;8317051;28;19929;-73
2022/02/23 17:25:17;;;;;;;3.50;0.30;;;;;;;8.79;66.87;99942.88;8315623;28;20535;-72
2022/02/23 17:29:20;;;;;;;1.52;0.43;;;;;;;8.84;65.96;99937.78;8318717;28;20144;-73
2022/02/23 17:33:22;;;;;;;5.20;0.43;;;;;;;8.86;67.61;99949.03;8314896;28;20049;-73
2022/02/23 17:37:24;;;;;;;0.80;0.30;;;;;;;8.79;68.06;99934.25;8315679;28;20469;-73
2022/02/23 17:41:26;;;;;;;1.15;0.93;;;;;;;8.77;68.22;99930.78;8310774;28;20504;-72
2022/02/23 17:45:27;;;;;;;1.13;0.30;;;;;;;8.70;68.89;99923.81;8308780;28;20360;-73
2022/02/23 17:49:29;;;;;;;1.20;0.30;;;;;;;8.58;70.34;99921.06;8314634;28;20045;-73
2022/02/23 17:53:30;;;;;;;0.50;0.20;;;;;;;8.55;69.75;99914.13;8302878;28;20445;-73
2022/02/23 17:57:32;;;;;;;1.33;0.35;;;;;;;8.48;69.47;99902.00;8313753;28;20064;-73
2022/02/23 18:01:33;;;;;;;2.25;0.40;;;;;;;8.37;69.67;99907.00;8312844;28;20140;-72
2022/02/23 18:05:40;;;;;;;0.82;0.25;;;;;;;8.23;71.36;99905.06;8312864;28;20091;-73
2022/02/23 18:09:41;;;;;;;2.83;0.40;;;;;;;8.16;71.63;99904.13;8317991;28;20060;-73
2022/02/23 18:13:43;;;;;;;5.10;0.40;;;;;;;8.06;71.80;99899.66;8316831;28;20060;-73
2022/02/23 18:17:45;;;;;;;3.80;0.52;;;;;;;8.03;72.09;99889.28;8327476;28;20413;-73
2022/02/23 18:21:47;;;;;;;1.05;0.70;;;;;;;7.93;72.66;99888.28;8315408;28;20087;-71
2022/02/23 18:25:51;;;;;;;1.05;0.30;;;;;;;7.84;72.38;99885.56;8346842;28;20056;-72
2022/02/23 18:29:52;;;;;;;2.88;0.50;;;;;;;7.73;73.66;99884.56;8313816;28;20067;-71
2022/02/23 18:33:54;;;;;;;1.35;0.50;;;;;;;7.70;73.61;99881.91;8312595;28;20068;-71
2022/02/23 18:37:55;;;;;;;3.15;0.65;;;;;;;7.63;73.84;99878.38;8316230;28;20081;-71
2022/02/23 18:41:57;;;;;;;3.50;0.50;;;;;;;7.57;74.33;99880.88;8313629;28;20062;-72
2022/02/23 18:45:59;;;;;;;2.57;0.30;;;;;;;7.47;74.78;99878.97;8312078;28;20061;-70
2022/02/23 18:50:01;;;;;;;0.60;0.40;;;;;;;7.38;74.85;99877.13;8312593;28;20705;-70
2022/02/23 18:54:03;;;;;;;1.70;0.40;;;;;;;7.34;75.59;99882.19;8312851;28;20136;-70
2022/02/23 18:58:05;;;;;;;0.93;0.50;;;;;;;7.27;75.82;99892.44;8311725;28;20057;-71
2022/02/23 19:02:09;;;;;;;0.95;0.40;;;;;;;7.27;76.76;99886.41;8302172;28;20168;-71
2022/02/23 19:06:11;;;;;;;1.00;0.40;;;;;;;7.26;76.69;99882.09;8313855;28;20084;-71
2022/02/23 19:10:12;;;;;;;0.50;0.50;;;;;;;7.24;76.74;99884.63;8313510;28;20049;-71
2022/02/23 19:14:14;;;;;;;0.83;0.60;;;;;;;7.25;76.91;99885.50;8309770;28;20053;-71
2022/02/23 19:18:15;;;;;;;2.60;1.05;;;;;;;7.24;76.78;99888.94;8309210;28;20061;-71
2022/02/23 19:22:17;;;;;;;0.65;0.52;;;;;;;7.25;76.77;99883.78;8314320;28;20107;-71
2022/02/23 19:26:18;;;;;;;2.77;0.63;;;;;;;7.28;76.42;99881.25;8312249;28;20460;-71
2022/02/23 19:30:20;;;;;;;8.82;1.73;;;;;;;7.25;76.34;99881.22;8310959;28;20057;-71
2022/02/23 19:34:21;;;;;;;1.43;0.73;;;;;;;7.24;76.99;99879.47;8312831;28;20160;-71
2022/02/23 19:38:24;;;;;;;1.50;0.63;;;;;;;7.25;78.08;99876.03;8313810;28;20057;-71
2022/02/23 19:42:26;;;;;;;2.20;0.80;;;;;;;7.22;76.60;99870.84;8314215;28;20060;-71
2022/02/23 19:46:27;;;;;;;4.68;0.70;;;;;;;7.19;75.04;99864.75;8309108;28;20060;-73
2022/02/23 19:50:31;;;;;;;2.33;0.80;;;;;;;7.15;74.49;99863.81;8311909;28;20144;-73
2022/02/23 19:54:32;;;;;;;2.00;0.90;;;;;;;7.13;75.46;99862.06;8310168;28;20041;-73
2022/02/23 19:58:34;;;;;;;4.40;1.13;;;;;;;7.05;76.06;99858.47;8310829;28;20829;-73
2022/02/23 20:02:36;;;;;;;2.77;0.83;;;;;;;7.02;76.24;99864.47;8306554;28;20045;-73
2022/02/23 20:06:41;;;;;;;1.63;0.73;;;;;;;6.98;77.00;99860.94;8308724;28;20065;-73
2022/02/23 20:10:43;;;;;;;2.40;1.10;;;;;;;6.94;77.72;99856.56;8309485;28;20054;-73
2022/02/23 20:14:45;;;;;;;2.75;0.90;;;;;;;6.91;78.56;99855.66;8311982;28;20156;-71
2022/02/23 20:18:47;;;;;;;1.00;0.85;;;;;;;6.84;78.60;99851.25;8308152;28;20073;-69
2022/02/23 20:22:48;;;;;;;3.37;1.37;;;;;;;6.77;78.44;99842.50;8308532;28;20327;-71
2022/02/23 20:26:50;;;;;;;2.07;1.40;;;;;;;6.62;78.67;99842.22;8310861;28;20071;-71
2022/02/23 20:30:51;;;;;;;2.20;1.77;;;;;;;6.47;78.25;99844.53;8313599;28;20068;-71
2022/02/23 20:34:54;;;;;;;8.45;2.63;;;;;;;6.30;78.55;99839.91;8318648;28;20063;-71
2022/02/23 20:38:55;;;;;;;5.13;3.30;;;;;;;6.15;78.75;99834.44;8317312;28;20079;-71
2022/02/23 20:42:57;;;;;;;6.23;3.03;;;;;;;6.04;79.58;99841.06;8350183;28;20530;-71
2022/02/23 20:46:59;;;;;;;6.23;2.97;;;;;;;5.88;79.66;99833.81;8315132;28;20152;-71
2022/02/23 20:51:02;;;;;;;4.05;2.58;;;;;;;5.74;79.96;99825.78;8318358;28;20049;-71
2022/02/23 20:55:05;;;;;;;4.83;2.73;;;;;;;5.63;80.58;99825.56;8312686;28;20053;-71
2022/02/23 20:59:07;;;;;;;4.00;1.93;;;;;;;5.51;81.52;99820.13;8314090;28;20085;-71
2022/02/23 21:03:10;;;;;;;2.63;1.13;;;;;;;5.43;82.14;99821.66;8314994;28;20160;-71
2022/02/23 21:07:13;;;;;;;2.17;1.10;;;;;;;5.38;82.72;99831.84;8318122;28;20049;-71
2022/02/23 21:11:15;;;;;;;;;;;;;;;5.36;82.70;99815.50;8317003;28;20136;-70
2022/02/23 21:15:18;;;;;;;1.63;0.63;;;;;;;5.32;83.47;99823.97;8313525;28;19932;-71
2022/02/23 21:19:19;;;;;;;1.17;0.57;;;;;;;5.34;83.77;99811.13;8307068;28;20058;-70
2022/02/23 21:23:20;;;;;;;1.20;0.67;;;;;;;5.36;83.67;99809.47;8311079;28;20477;-71
2022/02/23 21:27:22;;;;;;;3.30;0.70;;;;;;;5.36;84.32;99807.75;8307262;28;20500;-71
2022/02/23 21:31:24;;;;;;;3.20;0.90;;;;;;;5.34;83.75;99800.84;8311121;28;20053;-71
2022/02/23 21:35:25;;;;;;;2.63;0.60;;;;;;;5.29;83.74;99793.03;8315243;28;20053;-71
2022/02/23 21:39:27;;;;;;;2.80;0.77;;;;;;;5.22;83.93;99803.16;8316786;28;20077;-72
2022/02/23 21:43:28;;;;;;;2.53;0.90;;;;;;;5.16;83.39;99802.16;8310357;28;20168;-71
2022/02/23 21:47:30;;;;;;;3.00;0.87;;;;;;;5.12;83.83;99797.78;8316649;28;20053;-71
2022/02/23 21:51:34;;;;;;;7.87;2.23;;;;;;;5.16;84.05;99801.28;8301167;28;20489;-70
2022/02/23 21:55:35;;;;;;;5.73;2.37;;;;;;;5.24;84.52;99797.19;8306371;28;20059;-71
2022/02/23 21:59:38;;;;;;;3.53;1.97;;;;;;;5.27;84.30;99805.00;8307611;28;20633;-70
2022/02/23 22:03:40;;;;;;;3.57;1.97;;;;;;;5.28;84.65;99800.72;8298014;28;20053;-70
2022/02/23 22:07:41;;;;;;;1.60;1.33;;;;;;;5.38;85.09;99807.78;8305416;28;20056;-71
2022/02/23 22:11:43;;;;;;;2.73;1.47;;;;;;;5.38;85.00;99792.34;8305555;28;20057;-71
2022/02/23 22:15:44;;;;;;;5.53;1.40;;;;;;;5.45;84.86;99786.53;8315538;28;20061;-70
2022/02/23 22:19:46;;;;;;;2.67;1.43;;;;;;;5.45;84.88;99774.50;8306218;28;20049;-71
2022/02/23 22:23:48;;;;;;;4.63;1.60;;;;;;;5.50;84.54;99782.34;8305455;28;20049;-69
2022/02/23 22:27:49;;;;;;;3.23;1.20;;;;;;;5.48;84.59;99776.28;8306106;28;20418;-72
2022/02/23 22:31:51;;;;;;;2.77;1.40;;;;;;;5.46;84.51;99772.81;8302790;28;20053;-73
2022/02/23 22:35:52;;;;;;;2.80;1.23;;;;;;;5.42;84.97;99763.28;8318086;28;20054;-71
2022/02/23 22:39:54;;;;;;;4.77;1.53;;;;;;;5.43;85.21;99765.00;8303723;28;20061;-71
2022/02/23 22:43:55;;;;;;;3.00;1.60;;;;;;;5.50;85.13;99768.59;8305304;28;20060;-73
2022/02/23 22:47:57;;;;;;;2.93;1.20;;;;;;;5.51;85.26;99766.03;8300266;28;20173;-71
2022/02/23 22:51:58;;;;;;;1.50;1.40;;;;;;;5.53;85.37;99755.78;8311677;28;20058;-71
2022/02/23 22:55:59;;;;;;;3.60;1.43;;;;;;;5.49;85.57;99749.69;8312835;28;20057;-71
2022/02/23 23:00:03;;;;;;;3.17;1.70;;;;;;;5.51;85.17;99745.44;8313000;28;20065;-73
2022/02/23 23:04:05;;;;;;;2.70;1.40;;;;;;;5.55;84.62;99726.63;8308332;28;20152;-72
2022/02/23 23:08:06;;;;;;;1.57;1.33;;;;;;;5.56;84.53;99717.19;8314576;28;20579;-73
2022/02/23 23:12:08;;;;;;;4.03;1.77;;;;;;;5.58;84.58;99715.56;8329564;28;20388;-72
2022/02/23 23:16:10;;;;;;;2.70;1.40;;;;;;;5.57;84.57;99706.94;8311687;28;20057;-73
2022/02/23 23:20:12;;;;;;;8.82;1.88;;;;;;;5.58;84.89;99707.81;8329719;28;20054;-73
2022/02/23 23:24:13;;;;;;;4.97;1.67;;;;;;;5.59;85.11;99697.53;8312617;28;20045;-73
2022/02/23 23:28:15;;;;;;;2.20;1.43;;;;;;;5.64;85.33;99690.78;8312374;28;20060;-73
2022/02/23 23:32:16;;;;;;;1.63;1.17;;;;;;;5.67;85.14;99687.38;8310192;28;20057;-73
2022/02/23 23:36:19;;;;;;;1.40;1.03;;;;;;;5.68;85.14;99691.69;8312149;28;20049;-73
2022/02/23 23:40:21;;;;;;;3.50;1.00;;;;;;;5.69;85.56;99690.84;8313150;28;20491;-72
2022/02/23 23:44:22;;;;;;;1.53;1.10;;;;;;;5.72;85.19;99685.75;8312148;28;20803;-73
2022/02/23 23:48:24;;;;;;;5.90;0.90;;;;;;;5.73;85.52;99682.34;8309809;28;20114;-72
2022/02/23 23:52:26;;;;;;;2.17;1.00;;;;;;;5.76;85.34;99685.88;8312964;28;20053;-73
2022/02/23 23:56:29;;;;;;;1.53;0.90;;;;;;;5.79;85.60;99676.47;8315059;28;20140;-73
